sensor_id;sensor_type;location;lat;lon;timestamp;temperature;humidity
37460;DHT22;23318;50.966;5.284;2023-09-30T00:01:01;12.80;99.90
37460;DHT22;23318;50.966;5.284;2023-09-30T00:03:27;13.00;99.90
37460;DHT22;23318;50.966;5.284;2023-09-30T00:05:53;13.00;99.90
37460;DHT22;23318;50.966;5.284;2023-09-30T00:08:19;13.00;99.90
37460;DHT22;23318;50.966;5.284;2023-09-30T00:10:45;13.00;99.90
37460;DHT22;23318;50.966;5.284;2023-09-30T00:13:12;13.00;99.90
37460;DHT22;23318;50.966;5.284;2023-09-30T00:15:38;12.90;99.90
37460;DHT22;23318;50.966;5.284;2023-09-30T00:18:04;12.90;99.90
37460;DHT22;23318;50.966;5.284;2023-09-30T00:20:31;13.00;99.90
37460;DHT22;23318;50.966;5.284;2023-09-30T00:22:57;13.00;99.90
37460;DHT22;23318;50.966;5.284;2023-09-30T00:25:23;13.00;99.90
37460;DHT22;23318;50.966;5.284;2023-09-30T00:27:49;13.00;99.90
37460;DHT22;23318;50.966;5.284;2023-09-30T00:30:14;13.10;99.90
37460;DHT22;23318;50.966;5.284;2023-09-30T00:32:40;13.00;99.90
37460;DHT22;23318;50.966;5.284;2023-09-30T00:35:07;13.10;99.90
37460;DHT22;23318;50.966;5.284;2023-09-30T00:37:39;13.10;99.90
37460;DHT22;23318;50.966;5.284;2023-09-30T00:40:05;12.60;99.90
37460;DHT22;23318;50.966;5.284;2023-09-30T00:42:31;12.40;99.90
37460;DHT22;23318;50.966;5.284;2023-09-30T00:44:57;12.50;99.90
37460;DHT22;23318;50.966;5.284;2023-09-30T00:47:23;12.70;99.90
37460;DHT22;23318;50.966;5.284;2023-09-30T00:49:50;12.60;99.90
37460;DHT22;23318;50.966;5.284;2023-09-30T00:52:17;12.80;99.90
37460;DHT22;23318;50.966;5.284;2023-09-30T00:54:44;12.90;99.90
37460;DHT22;23318;50.966;5.284;2023-09-30T00:57:10;12.40;99.90
37460;DHT22;23318;50.966;5.284;2023-09-30T00:59:36;11.90;99.90
37460;DHT22;23318;50.966;5.284;2023-09-30T01:02:03;12.20;99.90
37460;DHT22;23318;50.966;5.284;2023-09-30T01:04:31;12.70;99.90
37460;DHT22;23318;50.966;5.284;2023-09-30T01:06:56;12.80;99.90
37460;DHT22;23318;50.966;5.284;2023-09-30T01:09:25;12.90;99.90
37460;DHT22;23318;50.966;5.284;2023-09-30T01:11:51;13.00;99.90
37460;DHT22;23318;50.966;5.284;2023-09-30T01:14:27;13.00;99.90
37460;DHT22;23318;50.966;5.284;2023-09-30T01:16:53;13.10;99.90
37460;DHT22;23318;50.966;5.284;2023-09-30T01:19:19;13.00;99.90
37460;DHT22;23318;50.966;5.284;2023-09-30T01:21:45;13.00;99.90
37460;DHT22;23318;50.966;5.284;2023-09-30T01:24:17;12.70;99.90
37460;DHT22;23318;50.966;5.284;2023-09-30T01:26:42;12.20;99.90
37460;DHT22;23318;50.966;5.284;2023-09-30T01:29:09;12.40;99.90
37460;DHT22;23318;50.966;5.284;2023-09-30T01:31:38;12.70;99.90
37460;DHT22;23318;50.966;5.284;2023-09-30T01:34:04;12.40;99.90
37460;DHT22;23318;50.966;5.284;2023-09-30T01:36:30;12.60;99.90
37460;DHT22;23318;50.966;5.284;2023-09-30T01:38:56;12.80;99.90
37460;DHT22;23318;50.966;5.284;2023-09-30T01:41:22;12.80;99.90
37460;DHT22;23318;50.966;5.284;2023-09-30T01:43:48;12.80;99.90
37460;DHT22;23318;50.966;5.284;2023-09-30T01:46:14;12.80;99.90
37460;DHT22;23318;50.966;5.284;2023-09-30T01:48:40;12.80;99.90
37460;DHT22;23318;50.966;5.284;2023-09-30T01:51:06;12.80;99.90
37460;DHT22;23318;50.966;5.284;2023-09-30T01:53:32;12.60;99.90
37460;DHT22;23318;50.966;5.284;2023-09-30T01:55:59;12.60;99.90
37460;DHT22;23318;50.966;5.284;2023-09-30T01:58:25;12.60;99.90
37460;DHT22;23318;50.966;5.284;2023-09-30T02:00:52;12.60;99.90
37460;DHT22;23318;50.966;5.284;2023-09-30T02:03:17;12.70;99.90
37460;DHT22;23318;50.966;5.284;2023-09-30T02:05:43;12.60;99.90
37460;DHT22;23318;50.966;5.284;2023-09-30T02:08:09;12.50;99.90
37460;DHT22;23318;50.966;5.284;2023-09-30T02:10:34;12.50;99.90
37460;DHT22;23318;50.966;5.284;2023-09-30T02:13:00;12.40;99.90
37460;DHT22;23318;50.966;5.284;2023-09-30T02:15:26;12.40;99.90
37460;DHT22;23318;50.966;5.284;2023-09-30T02:17:52;12.40;99.90
37460;DHT22;23318;50.966;5.284;2023-09-30T02:20:18;12.50;99.90
37460;DHT22;23318;50.966;5.284;2023-09-30T02:22:51;12.40;99.90
37460;DHT22;23318;50.966;5.284;2023-09-30T02:25:18;12.10;99.90
37460;DHT22;23318;50.966;5.284;2023-09-30T02:27:44;12.20;99.90
37460;DHT22;23318;50.966;5.284;2023-09-30T02:30:11;12.30;99.90
37460;DHT22;23318;50.966;5.284;2023-09-30T02:32:39;12.30;99.90
37460;DHT22;23318;50.966;5.284;2023-09-30T02:35:09;11.60;99.90
37460;DHT22;23318;50.966;5.284;2023-09-30T02:37:37;11.40;99.90
37460;DHT22;23318;50.966;5.284;2023-09-30T02:40:04;11.20;99.90
37460;DHT22;23318;50.966;5.284;2023-09-30T02:42:31;10.80;99.90
37460;DHT22;23318;50.966;5.284;2023-09-30T02:44:59;11.20;99.90
37460;DHT22;23318;50.966;5.284;2023-09-30T02:47:25;10.80;99.90
37460;DHT22;23318;50.966;5.284;2023-09-30T02:49:51;10.70;99.90
37460;DHT22;23318;50.966;5.284;2023-09-30T02:52:16;11.10;99.90
37460;DHT22;23318;50.966;5.284;2023-09-30T02:54:42;11.60;99.90
37460;DHT22;23318;50.966;5.284;2023-09-30T02:57:08;11.70;99.90
37460;DHT22;23318;50.966;5.284;2023-09-30T02:59:35;11.30;99.90
37460;DHT22;23318;50.966;5.284;2023-09-30T03:02:01;11.20;99.90
37460;DHT22;23318;50.966;5.284;2023-09-30T03:04:28;11.50;99.90
37460;DHT22;23318;50.966;5.284;2023-09-30T03:06:54;11.80;99.90
37460;DHT22;23318;50.966;5.284;2023-09-30T03:09:22;11.90;99.90
37460;DHT22;23318;50.966;5.284;2023-09-30T03:11:47;11.70;99.90
37460;DHT22;23318;50.966;5.284;2023-09-30T03:14:14;11.60;99.90
37460;DHT22;23318;50.966;5.284;2023-09-30T03:16:40;11.80;99.90
37460;DHT22;23318;50.966;5.284;2023-09-30T03:19:06;12.00;99.90
37460;DHT22;23318;50.966;5.284;2023-09-30T03:21:36;12.20;99.90
37460;DHT22;23318;50.966;5.284;2023-09-30T03:24:05;12.20;99.90
37460;DHT22;23318;50.966;5.284;2023-09-30T03:26:33;12.30;99.90
37460;DHT22;23318;50.966;5.284;2023-09-30T03:28:59;12.30;99.90
37460;DHT22;23318;50.966;5.284;2023-09-30T03:31:25;12.20;99.90
37460;DHT22;23318;50.966;5.284;2023-09-30T03:33:51;12.20;99.90
37460;DHT22;23318;50.966;5.284;2023-09-30T03:36:21;12.20;99.90
37460;DHT22;23318;50.966;5.284;2023-09-30T03:38:47;11.60;99.90
37460;DHT22;23318;50.966;5.284;2023-09-30T03:41:13;11.60;99.90
37460;DHT22;23318;50.966;5.284;2023-09-30T03:43:39;11.90;99.90
37460;DHT22;23318;50.966;5.284;2023-09-30T03:46:09;12.10;99.90
37460;DHT22;23318;50.966;5.284;2023-09-30T03:48:34;12.10;99.90
37460;DHT22;23318;50.966;5.284;2023-09-30T03:51:09;12.00;99.90
37460;DHT22;23318;50.966;5.284;2023-09-30T03:53:35;12.00;99.90
37460;DHT22;23318;50.966;5.284;2023-09-30T03:56:01;11.70;99.90
37460;DHT22;23318;50.966;5.284;2023-09-30T03:58:28;11.20;99.90
37460;DHT22;23318;50.966;5.284;2023-09-30T04:00:53;11.20;99.90
37460;DHT22;23318;50.966;5.284;2023-09-30T04:03:20;11.60;99.90
37460;DHT22;23318;50.966;5.284;2023-09-30T04:05:45;11.80;99.90
37460;DHT22;23318;50.966;5.284;2023-09-30T04:08:11;12.00;99.90
37460;DHT22;23318;50.966;5.284;2023-09-30T04:10:37;12.00;99.90
37460;DHT22;23318;50.966;5.284;2023-09-30T04:13:02;12.00;99.90
37460;DHT22;23318;50.966;5.284;2023-09-30T04:15:28;12.10;99.90
37460;DHT22;23318;50.966;5.284;2023-09-30T04:17:54;12.10;99.90
37460;DHT22;23318;50.966;5.284;2023-09-30T04:20:20;11.90;99.90
37460;DHT22;23318;50.966;5.284;2023-09-30T04:22:52;11.80;99.90
37460;DHT22;23318;50.966;5.284;2023-09-30T04:25:23;12.00;99.90
37460;DHT22;23318;50.966;5.284;2023-09-30T04:27:51;12.00;99.90
37460;DHT22;23318;50.966;5.284;2023-09-30T04:30:18;12.00;99.90
37460;DHT22;23318;50.966;5.284;2023-09-30T04:32:43;12.00;99.90
37460;DHT22;23318;50.966;5.284;2023-09-30T04:35:10;12.00;99.90
37460;DHT22;23318;50.966;5.284;2023-09-30T04:37:36;12.10;99.90
37460;DHT22;23318;50.966;5.284;2023-09-30T04:40:07;12.10;99.90
37460;DHT22;23318;50.966;5.284;2023-09-30T04:42:36;11.70;99.90
37460;DHT22;23318;50.966;5.284;2023-09-30T04:45:05;11.10;99.90
37460;DHT22;23318;50.966;5.284;2023-09-30T04:47:33;10.90;99.90
37460;DHT22;23318;50.966;5.284;2023-09-30T04:49:58;11.30;99.90
37460;DHT22;23318;50.966;5.284;2023-09-30T04:52:24;11.60;99.90
37460;DHT22;23318;50.966;5.284;2023-09-30T04:54:53;11.80;99.90
37460;DHT22;23318;50.966;5.284;2023-09-30T04:57:18;11.80;99.90
37460;DHT22;23318;50.966;5.284;2023-09-30T04:59:45;11.70;99.90
37460;DHT22;23318;50.966;5.284;2023-09-30T05:02:12;11.70;99.90
37460;DHT22;23318;50.966;5.284;2023-09-30T05:04:40;11.90;99.90
37460;DHT22;23318;50.966;5.284;2023-09-30T05:07:06;11.90;99.90
37460;DHT22;23318;50.966;5.284;2023-09-30T05:09:32;11.50;99.90
37460;DHT22;23318;50.966;5.284;2023-09-30T05:11:57;11.20;99.90
37460;DHT22;23318;50.966;5.284;2023-09-30T05:14:23;11.20;99.90
37460;DHT22;23318;50.966;5.284;2023-09-30T05:16:49;11.60;99.90
37460;DHT22;23318;50.966;5.284;2023-09-30T05:19:14;11.20;99.90
37460;DHT22;23318;50.966;5.284;2023-09-30T05:21:40;11.10;99.90
37460;DHT22;23318;50.966;5.284;2023-09-30T05:24:06;11.40;99.90
37460;DHT22;23318;50.966;5.284;2023-09-30T05:26:32;11.40;99.90
37460;DHT22;23318;50.966;5.284;2023-09-30T05:28:58;11.60;99.90
37460;DHT22;23318;50.966;5.284;2023-09-30T05:31:25;11.60;99.90
37460;DHT22;23318;50.966;5.284;2023-09-30T05:33:50;11.50;99.90
37460;DHT22;23318;50.966;5.284;2023-09-30T05:36:16;11.00;99.90
37460;DHT22;23318;50.966;5.284;2023-09-30T05:38:42;11.10;99.90
37460;DHT22;23318;50.966;5.284;2023-09-30T05:41:08;11.30;99.90
37460;DHT22;23318;50.966;5.284;2023-09-30T05:43:33;11.40;99.90
37460;DHT22;23318;50.966;5.284;2023-09-30T05:45:59;11.50;99.90
37460;DHT22;23318;50.966;5.284;2023-09-30T05:48:25;11.10;99.90
37460;DHT22;23318;50.966;5.284;2023-09-30T05:50:51;11.30;99.90
37460;DHT22;23318;50.966;5.284;2023-09-30T05:53:16;11.10;99.90
37460;DHT22;23318;50.966;5.284;2023-09-30T05:55:42;11.10;99.90
37460;DHT22;23318;50.966;5.284;2023-09-30T05:58:13;11.00;99.90
37460;DHT22;23318;50.966;5.284;2023-09-30T06:00:43;10.80;99.90
37460;DHT22;23318;50.966;5.284;2023-09-30T06:03:09;11.00;99.90
37460;DHT22;23318;50.966;5.284;2023-09-30T06:05:39;11.20;99.90
37460;DHT22;23318;50.966;5.284;2023-09-30T06:08:06;11.50;99.90
37460;DHT22;23318;50.966;5.284;2023-09-30T06:10:34;11.20;99.90
37460;DHT22;23318;50.966;5.284;2023-09-30T06:13:01;11.40;99.90
37460;DHT22;23318;50.966;5.284;2023-09-30T06:15:27;11.50;99.90
37460;DHT22;23318;50.966;5.284;2023-09-30T06:17:57;11.30;99.90
37460;DHT22;23318;50.966;5.284;2023-09-30T06:20:23;11.30;99.90
37460;DHT22;23318;50.966;5.284;2023-09-30T06:22:52;11.20;99.90
37460;DHT22;23318;50.966;5.284;2023-09-30T06:25:21;11.50;99.90
37460;DHT22;23318;50.966;5.284;2023-09-30T06:27:49;11.70;99.90
37460;DHT22;23318;50.966;5.284;2023-09-30T06:30:16;11.70;99.90
37460;DHT22;23318;50.966;5.284;2023-09-30T06:32:42;11.50;99.90
37460;DHT22;23318;50.966;5.284;2023-09-30T06:35:09;11.70;99.90
37460;DHT22;23318;50.966;5.284;2023-09-30T06:37:38;11.90;99.90
37460;DHT22;23318;50.966;5.284;2023-09-30T06:40:08;12.10;99.90
37460;DHT22;23318;50.966;5.284;2023-09-30T06:42:35;12.30;99.90
37460;DHT22;23318;50.966;5.284;2023-09-30T06:45:01;12.40;99.90
37460;DHT22;23318;50.966;5.284;2023-09-30T06:47:31;12.40;99.90
37460;DHT22;23318;50.966;5.284;2023-09-30T06:50:02;12.50;99.90
37460;DHT22;23318;50.966;5.284;2023-09-30T06:52:38;12.20;99.90
37460;DHT22;23318;50.966;5.284;2023-09-30T06:55:05;12.00;99.90
37460;DHT22;23318;50.966;5.284;2023-09-30T06:57:35;12.10;99.90
37460;DHT22;23318;50.966;5.284;2023-09-30T07:00:08;12.10;99.90
37460;DHT22;23318;50.966;5.284;2023-09-30T07:02:35;12.20;99.90
37460;DHT22;23318;50.966;5.284;2023-09-30T07:05:08;12.40;99.90
37460;DHT22;23318;50.966;5.284;2023-09-30T07:07:33;12.70;99.90
37460;DHT22;23318;50.966;5.284;2023-09-30T07:09:59;12.80;99.90
37460;DHT22;23318;50.966;5.284;2023-09-30T07:12:25;12.50;99.90
37460;DHT22;23318;50.966;5.284;2023-09-30T07:14:50;12.70;99.90
37460;DHT22;23318;50.966;5.284;2023-09-30T07:17:16;13.20;99.90
37460;DHT22;23318;50.966;5.284;2023-09-30T07:19:42;13.30;99.90
37460;DHT22;23318;50.966;5.284;2023-09-30T07:22:08;13.00;99.90
37460;DHT22;23318;50.966;5.284;2023-09-30T07:24:34;12.90;99.90
37460;DHT22;23318;50.966;5.284;2023-09-30T07:26:59;13.00;99.90
37460;DHT22;23318;50.966;5.284;2023-09-30T07:29:25;13.10;99.90
37460;DHT22;23318;50.966;5.284;2023-09-30T07:31:51;13.20;99.90
37460;DHT22;23318;50.966;5.284;2023-09-30T07:34:16;13.00;99.90
37460;DHT22;23318;50.966;5.284;2023-09-30T07:36:42;13.10;99.90
37460;DHT22;23318;50.966;5.284;2023-09-30T07:39:08;13.30;99.90
37460;DHT22;23318;50.966;5.284;2023-09-30T07:41:37;13.30;99.90
37460;DHT22;23318;50.966;5.284;2023-09-30T07:44:03;13.60;99.90
37460;DHT22;23318;50.966;5.284;2023-09-30T07:46:29;13.80;99.90
37460;DHT22;23318;50.966;5.284;2023-09-30T07:48:56;13.40;99.90
37460;DHT22;23318;50.966;5.284;2023-09-30T07:51:21;13.30;99.90
37460;DHT22;23318;50.966;5.284;2023-09-30T07:53:47;13.80;99.90
37460;DHT22;23318;50.966;5.284;2023-09-30T07:56:13;14.20;99.90
37460;DHT22;23318;50.966;5.284;2023-09-30T07:58:39;14.20;99.90
37460;DHT22;23318;50.966;5.284;2023-09-30T08:01:05;14.50;99.90
37460;DHT22;23318;50.966;5.284;2023-09-30T08:03:30;14.70;99.90
37460;DHT22;23318;50.966;5.284;2023-09-30T08:05:56;14.90;99.90
37460;DHT22;23318;50.966;5.284;2023-09-30T08:08:23;14.50;99.90
37460;DHT22;23318;50.966;5.284;2023-09-30T08:10:50;14.70;99.90
37460;DHT22;23318;50.966;5.284;2023-09-30T08:13:15;14.70;99.90
37460;DHT22;23318;50.966;5.284;2023-09-30T08:15:43;14.10;99.90
37460;DHT22;23318;50.966;5.284;2023-09-30T08:18:08;14.30;99.90
37460;DHT22;23318;50.966;5.284;2023-09-30T08:20:34;14.60;99.90
37460;DHT22;23318;50.966;5.284;2023-09-30T08:23:00;14.60;99.90
37460;DHT22;23318;50.966;5.284;2023-09-30T08:25:25;14.90;99.90
37460;DHT22;23318;50.966;5.284;2023-09-30T08:27:51;14.60;99.90
37460;DHT22;23318;50.966;5.284;2023-09-30T08:30:17;14.50;99.90
37460;DHT22;23318;50.966;5.284;2023-09-30T08:32:43;14.40;99.90
37460;DHT22;23318;50.966;5.284;2023-09-30T08:35:09;14.10;99.90
37460;DHT22;23318;50.966;5.284;2023-09-30T08:37:35;14.10;99.90
37460;DHT22;23318;50.966;5.284;2023-09-30T08:40:02;13.80;99.90
37460;DHT22;23318;50.966;5.284;2023-09-30T08:42:32;13.70;99.90
37460;DHT22;23318;50.966;5.284;2023-09-30T08:44:59;13.60;99.90
37460;DHT22;23318;50.966;5.284;2023-09-30T08:47:28;13.90;99.90
37460;DHT22;23318;50.966;5.284;2023-09-30T08:49:54;14.30;99.90
37460;DHT22;23318;50.966;5.284;2023-09-30T08:52:23;15.00;99.90
37460;DHT22;23318;50.966;5.284;2023-09-30T08:54:50;15.10;99.90
37460;DHT22;23318;50.966;5.284;2023-09-30T08:57:19;15.20;99.90
37460;DHT22;23318;50.966;5.284;2023-09-30T08:59:46;15.00;99.90
37460;DHT22;23318;50.966;5.284;2023-09-30T09:02:14;15.10;99.90
37460;DHT22;23318;50.966;5.284;2023-09-30T09:04:40;15.00;99.90
37460;DHT22;23318;50.966;5.284;2023-09-30T09:07:06;15.10;99.90
37460;DHT22;23318;50.966;5.284;2023-09-30T09:09:31;15.70;99.90
37460;DHT22;23318;50.966;5.284;2023-09-30T09:11:58;15.70;99.90
37460;DHT22;23318;50.966;5.284;2023-09-30T09:14:40;15.50;99.90
37460;DHT22;23318;50.966;5.284;2023-09-30T09:17:08;15.10;99.90
37460;DHT22;23318;50.966;5.284;2023-09-30T09:19:34;15.20;99.90
37460;DHT22;23318;50.966;5.284;2023-09-30T09:22:01;14.80;99.90
37460;DHT22;23318;50.966;5.284;2023-09-30T09:24:34;15.00;99.90
37460;DHT22;23318;50.966;5.284;2023-09-30T09:27:04;14.70;99.90
37460;DHT22;23318;50.966;5.284;2023-09-30T09:29:30;14.60;99.90
37460;DHT22;23318;50.966;5.284;2023-09-30T09:32:07;14.90;99.90
37460;DHT22;23318;50.966;5.284;2023-09-30T09:34:33;15.30;99.90
37460;DHT22;23318;50.966;5.284;2023-09-30T09:36:59;15.80;99.90
37460;DHT22;23318;50.966;5.284;2023-09-30T09:39:30;16.20;99.90
37460;DHT22;23318;50.966;5.284;2023-09-30T09:41:56;16.70;99.90
37460;DHT22;23318;50.966;5.284;2023-09-30T09:44:24;16.50;99.90
37460;DHT22;23318;50.966;5.284;2023-09-30T09:46:53;15.50;99.90
37460;DHT22;23318;50.966;5.284;2023-09-30T09:49:20;15.10;99.90
37460;DHT22;23318;50.966;5.284;2023-09-30T09:51:47;15.30;99.90
37460;DHT22;23318;50.966;5.284;2023-09-30T09:54:15;15.80;99.90
37460;DHT22;23318;50.966;5.284;2023-09-30T09:56:45;16.30;99.90
37460;DHT22;23318;50.966;5.284;2023-09-30T09:59:14;16.70;99.90
37460;DHT22;23318;50.966;5.284;2023-09-30T10:01:40;17.40;99.90
37460;DHT22;23318;50.966;5.284;2023-09-30T10:04:06;17.60;99.90
37460;DHT22;23318;50.966;5.284;2023-09-30T10:06:34;17.10;99.90
37460;DHT22;23318;50.966;5.284;2023-09-30T10:09:09;17.10;99.90
37460;DHT22;23318;50.966;5.284;2023-09-30T10:11:37;17.60;99.90
37460;DHT22;23318;50.966;5.284;2023-09-30T10:14:03;17.90;99.90
37460;DHT22;23318;50.966;5.284;2023-09-30T10:19:22;18.90;99.90
37460;DHT22;23318;50.966;5.284;2023-09-30T10:24:49;18.10;99.90
37460;DHT22;23318;50.966;5.284;2023-09-30T10:29:59;18.20;99.90
37460;DHT22;23318;50.966;5.284;2023-09-30T10:35:18;19.60;99.90
37460;DHT22;23318;50.966;5.284;2023-09-30T10:37:44;19.30;99.90
37460;DHT22;23318;50.966;5.284;2023-09-30T10:40:26;20.20;99.90
37460;DHT22;23318;50.966;5.284;2023-09-30T10:42:52;22.60;99.90
37460;DHT22;23318;50.966;5.284;2023-09-30T10:51:13;21.30;99.90
37460;DHT22;23318;50.966;5.284;2023-09-30T10:56:17;22.60;99.90
37460;DHT22;23318;50.966;5.284;2023-09-30T10:58:48;23.20;99.90
37460;DHT22;23318;50.966;5.284;2023-09-30T11:01:21;24.60;99.90
37460;DHT22;23318;50.966;5.284;2023-09-30T11:03:48;23.20;99.90
37460;DHT22;23318;50.966;5.284;2023-09-30T11:06:19;22.60;99.90
37460;DHT22;23318;50.966;5.284;2023-09-30T11:08:52;22.60;99.90
37460;DHT22;23318;50.966;5.284;2023-09-30T11:11:19;22.50;99.90
37460;DHT22;23318;50.966;5.284;2023-09-30T11:13:45;21.90;99.90
37460;DHT22;23318;50.966;5.284;2023-09-30T11:16:11;22.40;99.90
37460;DHT22;23318;50.966;5.284;2023-09-30T11:18:36;22.80;99.90
37460;DHT22;23318;50.966;5.284;2023-09-30T11:21:10;25.30;99.90
37460;DHT22;23318;50.966;5.284;2023-09-30T11:23:37;22.60;99.90
37460;DHT22;23318;50.966;5.284;2023-09-30T11:26:03;22.30;99.90
37460;DHT22;23318;50.966;5.284;2023-09-30T11:28:44;22.60;99.90
37460;DHT22;23318;50.966;5.284;2023-09-30T11:31:13;24.00;99.90
37460;DHT22;23318;50.966;5.284;2023-09-30T11:33:53;23.20;99.90
37460;DHT22;23318;50.966;5.284;2023-09-30T11:36:20;23.10;99.90
37460;DHT22;23318;50.966;5.284;2023-09-30T11:38:47;22.60;99.90
37460;DHT22;23318;50.966;5.284;2023-09-30T11:41:14;22.90;99.90
37460;DHT22;23318;50.966;5.284;2023-09-30T11:44:02;23.50;99.90
37460;DHT22;23318;50.966;5.284;2023-09-30T11:46:31;22.60;99.90
37460;DHT22;23318;50.966;5.284;2023-09-30T11:49:03;20.60;99.90
37460;DHT22;23318;50.966;5.284;2023-09-30T11:51:34;19.70;99.90
37460;DHT22;23318;50.966;5.284;2023-09-30T11:54:08;19.90;99.90
37460;DHT22;23318;50.966;5.284;2023-09-30T11:56:36;20.60;99.90
37460;DHT22;23318;50.966;5.284;2023-09-30T11:59:02;23.10;99.90
37460;DHT22;23318;50.966;5.284;2023-09-30T12:01:30;23.70;99.90
37460;DHT22;23318;50.966;5.284;2023-09-30T12:03:58;23.00;99.90
37460;DHT22;23318;50.966;5.284;2023-09-30T12:06:23;24.60;99.80
37460;DHT22;23318;50.966;5.284;2023-09-30T12:08:49;26.70;98.50
37460;DHT22;23318;50.966;5.284;2023-09-30T12:11:20;28.00;97.20
37460;DHT22;23318;50.966;5.284;2023-09-30T12:13:46;29.00;96.50
37460;DHT22;23318;50.966;5.284;2023-09-30T12:16:15;29.40;95.20
37460;DHT22;23318;50.966;5.284;2023-09-30T12:18:41;28.10;95.40
37460;DHT22;23318;50.966;5.284;2023-09-30T12:21:13;26.20;96.00
37460;DHT22;23318;50.966;5.284;2023-09-30T12:23:45;26.90;95.70
37460;DHT22;23318;50.966;5.284;2023-09-30T12:26:11;25.70;96.20
37460;DHT22;23318;50.966;5.284;2023-09-30T12:28:37;26.60;96.40
37460;DHT22;23318;50.966;5.284;2023-09-30T12:31:05;28.50;95.40
37460;DHT22;23318;50.966;5.284;2023-09-30T12:33:31;29.90;94.50
37460;DHT22;23318;50.966;5.284;2023-09-30T12:35:58;29.50;94.20
37460;DHT22;23318;50.966;5.284;2023-09-30T12:38:26;29.40;93.10
37460;DHT22;23318;50.966;5.284;2023-09-30T12:40:54;27.70;93.90
37460;DHT22;23318;50.966;5.284;2023-09-30T12:43:20;29.00;93.50
37460;DHT22;23318;50.966;5.284;2023-09-30T12:45:47;28.70;93.30
37460;DHT22;23318;50.966;5.284;2023-09-30T12:48:13;27.00;94.40
37460;DHT22;23318;50.966;5.284;2023-09-30T12:50:40;28.00;93.60
37460;DHT22;23318;50.966;5.284;2023-09-30T12:53:06;26.90;94.20
37460;DHT22;23318;50.966;5.284;2023-09-30T12:55:32;27.40;94.10
37460;DHT22;23318;50.966;5.284;2023-09-30T12:57:57;28.10;94.40
37460;DHT22;23318;50.966;5.284;2023-09-30T13:00:25;28.60;93.80
37460;DHT22;23318;50.966;5.284;2023-09-30T13:02:52;27.80;93.90
37460;DHT22;23318;50.966;5.284;2023-09-30T13:05:17;27.90;93.70
37460;DHT22;23318;50.966;5.284;2023-09-30T13:07:43;27.40;94.00
37460;DHT22;23318;50.966;5.284;2023-09-30T13:10:09;25.20;94.90
37460;DHT22;23318;50.966;5.284;2023-09-30T13:12:35;26.00;95.30
37460;DHT22;23318;50.966;5.284;2023-09-30T13:15:01;28.40;93.60
37460;DHT22;23318;50.966;5.284;2023-09-30T13:17:27;29.80;92.40
37460;DHT22;23318;50.966;5.284;2023-09-30T13:19:54;30.60;92.00
37460;DHT22;23318;50.966;5.284;2023-09-30T13:22:20;31.00;91.80
37460;DHT22;23318;50.966;5.284;2023-09-30T13:24:45;29.80;92.20
37460;DHT22;23318;50.966;5.284;2023-09-30T13:27:11;29.30;92.00
37460;DHT22;23318;50.966;5.284;2023-09-30T13:29:37;27.60;93.10
37460;DHT22;23318;50.966;5.284;2023-09-30T13:32:03;26.30;94.00
37460;DHT22;23318;50.966;5.284;2023-09-30T13:34:29;26.10;93.80
37460;DHT22;23318;50.966;5.284;2023-09-30T13:36:55;26.30;93.90
37460;DHT22;23318;50.966;5.284;2023-09-30T13:39:23;27.10;93.70
37460;DHT22;23318;50.966;5.284;2023-09-30T13:41:50;25.90;93.70
37460;DHT22;23318;50.966;5.284;2023-09-30T13:44:16;26.70;93.60
37460;DHT22;23318;50.966;5.284;2023-09-30T13:46:41;26.70;93.50
37460;DHT22;23318;50.966;5.284;2023-09-30T13:49:08;26.00;94.10
37460;DHT22;23318;50.966;5.284;2023-09-30T13:51:33;26.30;94.20
37460;DHT22;23318;50.966;5.284;2023-09-30T13:53:59;26.20;93.80
37460;DHT22;23318;50.966;5.284;2023-09-30T13:56:25;26.30;94.30
37460;DHT22;23318;50.966;5.284;2023-09-30T13:58:51;25.50;94.30
37460;DHT22;23318;50.966;5.284;2023-09-30T14:01:17;25.70;93.80
37460;DHT22;23318;50.966;5.284;2023-09-30T14:03:45;25.10;94.20
37460;DHT22;23318;50.966;5.284;2023-09-30T14:06:13;25.10;94.00
37460;DHT22;23318;50.966;5.284;2023-09-30T14:08:39;24.30;94.70
37460;DHT22;23318;50.966;5.284;2023-09-30T14:11:08;23.50;95.70
37460;DHT22;23318;50.966;5.284;2023-09-30T14:13:34;24.70;95.30
37460;DHT22;23318;50.966;5.284;2023-09-30T14:15:59;23.10;95.60
37460;DHT22;23318;50.966;5.284;2023-09-30T14:18:25;24.40;95.50
37460;DHT22;23318;50.966;5.284;2023-09-30T14:20:50;23.80;95.90
37460;DHT22;23318;50.966;5.284;2023-09-30T14:23:16;23.10;95.50
37460;DHT22;23318;50.966;5.284;2023-09-30T14:25:42;24.20;95.30
37460;DHT22;23318;50.966;5.284;2023-09-30T14:28:08;24.50;95.50
37460;DHT22;23318;50.966;5.284;2023-09-30T14:30:33;25.60;94.40
37460;DHT22;23318;50.966;5.284;2023-09-30T14:32:59;25.20;94.40
37460;DHT22;23318;50.966;5.284;2023-09-30T14:35:25;26.00;94.20
37460;DHT22;23318;50.966;5.284;2023-09-30T14:37:51;26.90;93.80
37460;DHT22;23318;50.966;5.284;2023-09-30T14:40:20;26.90;94.10
37460;DHT22;23318;50.966;5.284;2023-09-30T14:42:46;27.50;94.10
37460;DHT22;23318;50.966;5.284;2023-09-30T14:45:11;27.90;93.10
37460;DHT22;23318;50.966;5.284;2023-09-30T14:47:37;28.10;93.10
37460;DHT22;23318;50.966;5.284;2023-09-30T14:50:06;28.00;92.90
37460;DHT22;23318;50.966;5.284;2023-09-30T14:52:32;28.10;93.00
37460;DHT22;23318;50.966;5.284;2023-09-30T14:54:58;27.60;93.30
37460;DHT22;23318;50.966;5.284;2023-09-30T14:57:24;27.20;93.60
37460;DHT22;23318;50.966;5.284;2023-09-30T14:59:50;27.20;93.50
37460;DHT22;23318;50.966;5.284;2023-09-30T15:02:16;26.90;93.50
37460;DHT22;23318;50.966;5.284;2023-09-30T15:04:42;26.90;93.40
37460;DHT22;23318;50.966;5.284;2023-09-30T15:07:07;27.30;93.40
37460;DHT22;23318;50.966;5.284;2023-09-30T15:09:33;27.80;93.40
37460;DHT22;23318;50.966;5.284;2023-09-30T15:11:58;28.30;92.90
37460;DHT22;23318;50.966;5.284;2023-09-30T15:14:24;28.30;92.90
37460;DHT22;23318;50.966;5.284;2023-09-30T15:16:50;27.90;93.60
37460;DHT22;23318;50.966;5.284;2023-09-30T15:19:15;28.20;93.30
37460;DHT22;23318;50.966;5.284;2023-09-30T15:21:41;28.70;92.70
37460;DHT22;23318;50.966;5.284;2023-09-30T15:24:07;28.80;92.50
37460;DHT22;23318;50.966;5.284;2023-09-30T15:26:33;28.70;92.40
37460;DHT22;23318;50.966;5.284;2023-09-30T15:29:00;28.10;92.90
37460;DHT22;23318;50.966;5.284;2023-09-30T15:31:32;28.20;92.70
37460;DHT22;23318;50.966;5.284;2023-09-30T15:33:58;27.10;93.10
37460;DHT22;23318;50.966;5.284;2023-09-30T15:36:24;27.60;92.90
37460;DHT22;23318;50.966;5.284;2023-09-30T15:38:53;27.70;92.70
37460;DHT22;23318;50.966;5.284;2023-09-30T15:41:23;27.30;93.10
37460;DHT22;23318;50.966;5.284;2023-09-30T15:43:49;26.80;93.50
37460;DHT22;23318;50.966;5.284;2023-09-30T15:46:15;26.60;94.10
37460;DHT22;23318;50.966;5.284;2023-09-30T15:48:41;26.40;93.90